sensor_id;sensor_type;location;lat;lon;timestamp;P1;durP1;ratioP1;P2;durP2;ratioP2
29812;SDS011;16707;48.106;11.548;2023-05-20T00:00:40;6.43;;;4.50;;
29812;SDS011;16707;48.106;11.548;2023-05-20T00:03:15;5.07;;;4.50;;
29812;SDS011;16707;48.106;11.548;2023-05-20T00:05:44;6.80;;;4.65;;
29812;SDS011;16707;48.106;11.548;2023-05-20T00:08:12;5.20;;;4.28;;
29812;SDS011;16707;48.106;11.548;2023-05-20T00:10:43;5.15;;;4.65;;
29812;SDS011;16707;48.106;11.548;2023-05-20T00:13:16;6.82;;;4.65;;
29812;SDS011;16707;48.106;11.548;2023-05-20T00:15:44;5.75;;;4.70;;
29812;SDS011;16707;48.106;11.548;2023-05-20T00:18:11;5.10;;;4.20;;
29812;SDS011;16707;48.106;11.548;2023-05-20T00:20:42;6.88;;;4.90;;
29812;SDS011;16707;48.106;11.548;2023-05-20T00:23:09;4.53;;;4.03;;
29812;SDS011;16707;48.106;11.548;2023-05-20T00:25:37;7.88;;;4.95;;
29812;SDS011;16707;48.106;11.548;2023-05-20T00:28:17;6.07;;;4.80;;
29812;SDS011;16707;48.106;11.548;2023-05-20T00:30:45;7.07;;;4.38;;
29812;SDS011;16707;48.106;11.548;2023-05-20T00:33:12;5.25;;;4.22;;
29812;SDS011;16707;48.106;11.548;2023-05-20T00:35:45;7.18;;;5.20;;
29812;SDS011;16707;48.106;11.548;2023-05-20T00:38:19;5.70;;;4.53;;
29812;SDS011;16707;48.106;11.548;2023-05-20T00:40:48;6.15;;;4.45;;
29812;SDS011;16707;48.106;11.548;2023-05-20T00:43:15;8.35;;;5.10;;
29812;SDS011;16707;48.106;11.548;2023-05-20T00:45:49;15.25;;;5.60;;
29812;SDS011;16707;48.106;11.548;2023-05-20T00:48:41;6.55;;;4.68;;
29812;SDS011;16707;48.106;11.548;2023-05-20T00:51:09;7.05;;;5.03;;
29812;SDS011;16707;48.106;11.548;2023-05-20T00:53:37;5.65;;;4.43;;
29812;SDS011;16707;48.106;11.548;2023-05-20T00:56:07;7.00;;;5.55;;
29812;SDS011;16707;48.106;11.548;2023-05-20T00:58:34;6.07;;;4.97;;
29812;SDS011;16707;48.106;11.548;2023-05-20T01:01:05;7.30;;;5.53;;
29812;SDS011;16707;48.106;11.548;2023-05-20T01:03:32;7.25;;;5.30;;
29812;SDS011;16707;48.106;11.548;2023-05-20T01:06:02;6.88;;;5.13;;
29812;SDS011;16707;48.106;11.548;2023-05-20T01:08:35;6.18;;;4.53;;
29812;SDS011;16707;48.106;11.548;2023-05-20T01:11:10;5.97;;;4.90;;
29812;SDS011;16707;48.106;11.548;2023-05-20T01:16:17;7.72;;;5.22;;
29812;SDS011;16707;48.106;11.548;2023-05-20T01:18:54;6.35;;;5.07;;
29812;SDS011;16707;48.106;11.548;2023-05-20T01:21:26;7.25;;;5.47;;
29812;SDS011;16707;48.106;11.548;2023-05-20T01:23:58;5.93;;;5.00;;
29812;SDS011;16707;48.106;11.548;2023-05-20T01:26:28;8.00;;;5.40;;
29812;SDS011;16707;48.106;11.548;2023-05-20T01:29:02;6.53;;;5.40;;
29812;SDS011;16707;48.106;11.548;2023-05-20T01:31:31;8.10;;;5.63;;
29812;SDS011;16707;48.106;11.548;2023-05-20T01:34:01;7.13;;;5.72;;
29812;SDS011;16707;48.106;11.548;2023-05-20T01:36:34;6.07;;;5.35;;
29812;SDS011;16707;48.106;11.548;2023-05-20T01:39:14;6.82;;;5.43;;
29812;SDS011;16707;48.106;11.548;2023-05-20T01:41:46;7.90;;;6.03;;
29812;SDS011;16707;48.106;11.548;2023-05-20T01:44:23;7.88;;;5.45;;
29812;SDS011;16707;48.106;11.548;2023-05-20T01:47:02;8.07;;;5.70;;
29812;SDS011;16707;48.106;11.548;2023-05-20T01:49:32;6.78;;;5.70;;
29812;SDS011;16707;48.106;11.548;2023-05-20T01:52:01;9.05;;;5.32;;
29812;SDS011;16707;48.106;11.548;2023-05-20T01:54:31;7.47;;;6.00;;
29812;SDS011;16707;48.106;11.548;2023-05-20T01:57:01;9.40;;;6.10;;
29812;SDS011;16707;48.106;11.548;2023-05-20T01:59:32;7.45;;;6.32;;
29812;SDS011;16707;48.106;11.548;2023-05-20T02:02:07;7.43;;;5.72;;
29812;SDS011;16707;48.106;11.548;2023-05-20T02:04:37;7.68;;;5.82;;
29812;SDS011;16707;48.106;11.548;2023-05-20T02:07:08;8.48;;;6.20;;
29812;SDS011;16707;48.106;11.548;2023-05-20T02:09:36;8.55;;;6.20;;
29812;SDS011;16707;48.106;11.548;2023-05-20T02:12:11;8.02;;;6.70;;
29812;SDS011;16707;48.106;11.548;2023-05-20T02:14:44;7.70;;;6.30;;
29812;SDS011;16707;48.106;11.548;2023-05-20T02:17:12;7.53;;;6.47;;
29812;SDS011;16707;48.106;11.548;2023-05-20T02:19:43;8.85;;;6.00;;
29812;SDS011;16707;48.106;11.548;2023-05-20T02:22:16;7.57;;;6.18;;
29812;SDS011;16707;48.106;11.548;2023-05-20T02:24:45;9.23;;;6.60;;
29812;SDS011;16707;48.106;11.548;2023-05-20T02:27:18;9.20;;;6.90;;
29812;SDS011;16707;48.106;11.548;2023-05-20T02:29:48;8.25;;;6.60;;
29812;SDS011;16707;48.106;11.548;2023-05-20T02:32:16;10.00;;;6.85;;
29812;SDS011;16707;48.106;11.548;2023-05-20T02:34:44;9.00;;;6.82;;
29812;SDS011;16707;48.106;11.548;2023-05-20T02:37:12;9.55;;;6.32;;
29812;SDS011;16707;48.106;11.548;2023-05-20T02:39:39;9.77;;;6.80;;
29812;SDS011;16707;48.106;11.548;2023-05-20T02:42:08;9.38;;;6.55;;
29812;SDS011;16707;48.106;11.548;2023-05-20T02:44:43;7.38;;;6.03;;
29812;SDS011;16707;48.106;11.548;2023-05-20T02:47:13;10.82;;;7.53;;
29812;SDS011;16707;48.106;11.548;2023-05-20T02:49:46;9.90;;;6.78;;
29812;SDS011;16707;48.106;11.548;2023-05-20T02:52:15;10.55;;;6.65;;
29812;SDS011;16707;48.106;11.548;2023-05-20T02:54:46;9.05;;;6.85;;
29812;SDS011;16707;48.106;11.548;2023-05-20T02:57:19;10.27;;;7.28;;
29812;SDS011;16707;48.106;11.548;2023-05-20T02:59:55;13.75;;;7.10;;
29812;SDS011;16707;48.106;11.548;2023-05-20T03:02:25;8.95;;;7.53;;
29812;SDS011;16707;48.106;11.548;2023-05-20T03:04:52;10.93;;;7.38;;
29812;SDS011;16707;48.106;11.548;2023-05-20T03:07:22;11.57;;;8.18;;
29812;SDS011;16707;48.106;11.548;2023-05-20T03:09:55;11.32;;;7.72;;
29812;SDS011;16707;48.106;11.548;2023-05-20T03:12:25;10.50;;;8.10;;
29812;SDS011;16707;48.106;11.548;2023-05-20T03:14:55;10.60;;;7.30;;
29812;SDS011;16707;48.106;11.548;2023-05-20T03:17:31;11.27;;;8.73;;
29812;SDS011;16707;48.106;11.548;2023-05-20T03:20:02;12.07;;;8.25;;
29812;SDS011;16707;48.106;11.548;2023-05-20T03:22:34;13.40;;;9.13;;
29812;SDS011;16707;48.106;11.548;2023-05-20T03:25:01;15.18;;;8.27;;
29812;SDS011;16707;48.106;11.548;2023-05-20T03:27:34;13.27;;;9.07;;
29812;SDS011;16707;48.106;11.548;2023-05-20T03:30:04;14.75;;;9.32;;
29812;SDS011;16707;48.106;11.548;2023-05-20T03:32:38;13.52;;;9.55;;
29812;SDS011;16707;48.106;11.548;2023-05-20T03:35:06;14.63;;;8.80;;
29812;SDS011;16707;48.106;11.548;2023-05-20T03:37:34;12.00;;;8.15;;
29812;SDS011;16707;48.106;11.548;2023-05-20T03:40:04;13.35;;;9.07;;
29812;SDS011;16707;48.106;11.548;2023-05-20T03:42:36;15.43;;;9.85;;
29812;SDS011;16707;48.106;11.548;2023-05-20T03:45:04;15.40;;;9.88;;
29812;SDS011;16707;48.106;11.548;2023-05-20T03:47:37;15.32;;;10.18;;
29812;SDS011;16707;48.106;11.548;2023-05-20T03:50:06;17.10;;;10.75;;
29812;SDS011;16707;48.106;11.548;2023-05-20T03:52:33;15.45;;;10.30;;
29812;SDS011;16707;48.106;11.548;2023-05-20T03:55:01;15.73;;;9.30;;
29812;SDS011;16707;48.106;11.548;2023-05-20T03:57:29;16.77;;;10.75;;
29812;SDS011;16707;48.106;11.548;2023-05-20T03:59:57;14.82;;;10.10;;
29812;SDS011;16707;48.106;11.548;2023-05-20T04:02:26;17.30;;;11.10;;
29812;SDS011;16707;48.106;11.548;2023-05-20T04:04:53;16.45;;;10.65;;
29812;SDS011;16707;48.106;11.548;2023-05-20T04:07:21;17.83;;;11.55;;
29812;SDS011;16707;48.106;11.548;2023-05-20T04:09:49;14.93;;;10.38;;
29812;SDS011;16707;48.106;11.548;2023-05-20T04:12:19;15.52;;;10.80;;
29812;SDS011;16707;48.106;11.548;2023-05-20T04:14:47;18.30;;;11.32;;
29812;SDS011;16707;48.106;11.548;2023-05-20T04:17:18;27.48;;;13.35;;
29812;SDS011;16707;48.106;11.548;2023-05-20T04:19:45;20.65;;;11.98;;
29812;SDS011;16707;48.106;11.548;2023-05-20T04:22:12;18.67;;;11.30;;
29812;SDS011;16707;48.106;11.548;2023-05-20T04:24:39;19.25;;;11.63;;
29812;SDS011;16707;48.106;11.548;2023-05-20T04:27:06;23.60;;;12.18;;
29812;SDS011;16707;48.106;11.548;2023-05-20T04:29:35;20.35;;;13.30;;
29812;SDS011;16707;48.106;11.548;2023-05-20T04:32:02;21.73;;;11.45;;
29812;SDS011;16707;48.106;11.548;2023-05-20T04:34:39;19.70;;;11.63;;
29812;SDS011;16707;48.106;11.548;2023-05-20T04:37:21;21.95;;;13.75;;
29812;SDS011;16707;48.106;11.548;2023-05-20T04:39:49;22.90;;;13.65;;
29812;SDS011;16707;48.106;11.548;2023-05-20T04:42:19;26.20;;;12.90;;
29812;SDS011;16707;48.106;11.548;2023-05-20T04:44:48;26.50;;;13.57;;
29812;SDS011;16707;48.106;11.548;2023-05-20T04:47:18;21.98;;;13.05;;
29812;SDS011;16707;48.106;11.548;2023-05-20T04:49:54;22.45;;;12.85;;
29812;SDS011;16707;48.106;11.548;2023-05-20T04:52:21;25.10;;;13.93;;
29812;SDS011;16707;48.106;11.548;2023-05-20T04:54:50;25.77;;;14.32;;
29812;SDS011;16707;48.106;11.548;2023-05-20T04:57:25;23.58;;;13.30;;
29812;SDS011;16707;48.106;11.548;2023-05-20T04:59:52;22.77;;;12.52;;
29812;SDS011;16707;48.106;11.548;2023-05-20T05:02:23;20.15;;;12.48;;
29812;SDS011;16707;48.106;11.548;2023-05-20T05:04:55;19.90;;;12.40;;
29812;SDS011;16707;48.106;11.548;2023-05-20T05:07:22;18.52;;;10.98;;
29812;SDS011;16707;48.106;11.548;2023-05-20T05:09:49;19.52;;;11.88;;
29812;SDS011;16707;48.106;11.548;2023-05-20T05:12:16;19.15;;;11.15;;
29812;SDS011;16707;48.106;11.548;2023-05-20T05:14:43;21.42;;;12.05;;
29812;SDS011;16707;48.106;11.548;2023-05-20T05:17:16;21.60;;;11.35;;
29812;SDS011;16707;48.106;11.548;2023-05-20T05:19:43;20.35;;;11.50;;
29812;SDS011;16707;48.106;11.548;2023-05-20T05:22:15;22.77;;;13.23;;
29812;SDS011;16707;48.106;11.548;2023-05-20T05:24:42;20.17;;;11.50;;
29812;SDS011;16707;48.106;11.548;2023-05-20T05:27:10;20.95;;;13.55;;
29812;SDS011;16707;48.106;11.548;2023-05-20T05:29:49;20.90;;;12.82;;
29812;SDS011;16707;48.106;11.548;2023-05-20T05:32:24;23.40;;;13.02;;
29812;SDS011;16707;48.106;11.548;2023-05-20T05:34:54;21.65;;;13.40;;
29812;SDS011;16707;48.106;11.548;2023-05-20T05:37:22;21.38;;;12.38;;
29812;SDS011;16707;48.106;11.548;2023-05-20T05:39:50;22.45;;;13.18;;
29812;SDS011;16707;48.106;11.548;2023-05-20T05:42:26;24.23;;;12.38;;
29812;SDS011;16707;48.106;11.548;2023-05-20T05:44:56;20.42;;;11.48;;
29812;SDS011;16707;48.106;11.548;2023-05-20T05:47:30;21.50;;;12.27;;
29812;SDS011;16707;48.106;11.548;2023-05-20T05:50:03;16.95;;;11.45;;
29812;SDS011;16707;48.106;11.548;2023-05-20T05:52:45;16.23;;;10.52;;
29812;SDS011;16707;48.106;11.548;2023-05-20T05:55:19;19.25;;;11.15;;
29812;SDS011;16707;48.106;11.548;2023-05-20T05:57:57;17.83;;;10.60;;
29812;SDS011;16707;48.106;11.548;2023-05-20T06:00:25;16.73;;;10.55;;
29812;SDS011;16707;48.106;11.548;2023-05-20T06:02:53;19.75;;;10.73;;
29812;SDS011;16707;48.106;11.548;2023-05-20T06:05:20;19.65;;;11.07;;
29812;SDS011;16707;48.106;11.548;2023-05-20T06:07:52;17.67;;;11.60;;
29812;SDS011;16707;48.106;11.548;2023-05-20T06:10:19;14.38;;;9.18;;
29812;SDS011;16707;48.106;11.548;2023-05-20T06:12:50;18.67;;;11.27;;
29812;SDS011;16707;48.106;11.548;2023-05-20T06:15:17;15.00;;;10.48;;
29812;SDS011;16707;48.106;11.548;2023-05-20T06:17:48;14.00;;;10.18;;
29812;SDS011;16707;48.106;11.548;2023-05-20T06:20:15;18.67;;;10.90;;
29812;SDS011;16707;48.106;11.548;2023-05-20T06:22:46;13.63;;;10.27;;
29812;SDS011;16707;48.106;11.548;2023-05-20T06:25:15;20.92;;;10.02;;
29812;SDS011;16707;48.106;11.548;2023-05-20T06:27:47;17.48;;;10.13;;
29812;SDS011;16707;48.106;11.548;2023-05-20T06:30:14;19.15;;;11.13;;
29812;SDS011;16707;48.106;11.548;2023-05-20T06:32:41;15.25;;;10.13;;
29812;SDS011;16707;48.106;11.548;2023-05-20T06:35:09;16.77;;;9.57;;
29812;SDS011;16707;48.106;11.548;2023-05-20T06:37:37;16.50;;;10.82;;
29812;SDS011;16707;48.106;11.548;2023-05-20T06:40:05;14.40;;;9.20;;
29812;SDS011;16707;48.106;11.548;2023-05-20T06:42:34;16.73;;;10.02;;
29812;SDS011;16707;48.106;11.548;2023-05-20T06:45:09;15.18;;;8.77;;
29812;SDS011;16707;48.106;11.548;2023-05-20T06:47:38;17.58;;;9.32;;
29812;SDS011;16707;48.106;11.548;2023-05-20T06:50:05;16.05;;;10.07;;
29812;SDS011;16707;48.106;11.548;2023-05-20T06:52:32;16.35;;;10.05;;
29812;SDS011;16707;48.106;11.548;2023-05-20T06:55:02;15.10;;;9.48;;
29812;SDS011;16707;48.106;11.548;2023-05-20T06:57:32;15.23;;;9.70;;
29812;SDS011;16707;48.106;11.548;2023-05-20T07:00:01;14.77;;;9.10;;
29812;SDS011;16707;48.106;11.548;2023-05-20T07:02:32;15.18;;;9.25;;
29812;SDS011;16707;48.106;11.548;2023-05-20T07:05:02;12.35;;;9.07;;
29812;SDS011;16707;48.106;11.548;2023-05-20T07:07:32;12.55;;;9.07;;
29812;SDS011;16707;48.106;11.548;2023-05-20T07:09:59;14.32;;;9.23;;
29812;SDS011;16707;48.106;11.548;2023-05-20T07:12:32;13.82;;;9.32;;
29812;SDS011;16707;48.106;11.548;2023-05-20T07:15:04;14.70;;;9.43;;
29812;SDS011;16707;48.106;11.548;2023-05-20T07:17:32;16.63;;;9.68;;
29812;SDS011;16707;48.106;11.548;2023-05-20T07:20:00;15.85;;;10.00;;
29812;SDS011;16707;48.106;11.548;2023-05-20T07:22:32;16.10;;;9.55;;
29812;SDS011;16707;48.106;11.548;2023-05-20T07:25:00;15.15;;;10.48;;
29812;SDS011;16707;48.106;11.548;2023-05-20T07:27:33;15.82;;;10.40;;
29812;SDS011;16707;48.106;11.548;2023-05-20T07:30:00;15.40;;;9.80;;
29812;SDS011;16707;48.106;11.548;2023-05-20T07:32:29;17.58;;;10.23;;
29812;SDS011;16707;48.106;11.548;2023-05-20T07:34:56;17.35;;;9.88;;
29812;SDS011;16707;48.106;11.548;2023-05-20T07:37:23;14.05;;;9.15;;
29812;SDS011;16707;48.106;11.548;2023-05-20T07:39:50;14.45;;;10.02;;
29812;SDS011;16707;48.106;11.548;2023-05-20T07:42:18;13.45;;;9.60;;
29812;SDS011;16707;48.106;11.548;2023-05-20T07:44:46;17.80;;;10.63;;
29812;SDS011;16707;48.106;11.548;2023-05-20T07:47:17;16.75;;;9.70;;
29812;SDS011;16707;48.106;11.548;2023-05-20T07:49:52;16.70;;;10.13;;
29812;SDS011;16707;48.106;11.548;2023-05-20T07:52:20;16.77;;;10.68;;
29812;SDS011;16707;48.106;11.548;2023-05-20T07:54:47;13.52;;;9.20;;
29812;SDS011;16707;48.106;11.548;2023-05-20T07:57:14;14.77;;;9.32;;
29812;SDS011;16707;48.106;11.548;2023-05-20T07:59:53;11.13;;;8.13;;
29812;SDS011;16707;48.106;11.548;2023-05-20T08:02:23;11.32;;;8.63;;
29812;SDS011;16707;48.106;11.548;2023-05-20T08:05:02;13.55;;;8.38;;
29812;SDS011;16707;48.106;11.548;2023-05-20T08:07:33;12.95;;;9.07;;
29812;SDS011;16707;48.106;11.548;2023-05-20T08:10:00;9.90;;;8.35;;
29812;SDS011;16707;48.106;11.548;2023-05-20T08:12:31;13.60;;;8.88;;
29812;SDS011;16707;48.106;11.548;2023-05-20T08:15:01;13.60;;;9.20;;
29812;SDS011;16707;48.106;11.548;2023-05-20T08:17:28;12.52;;;8.18;;
29812;SDS011;16707;48.106;11.548;2023-05-20T08:19:55;12.95;;;9.45;;
29812;SDS011;16707;48.106;11.548;2023-05-20T08:22:25;11.18;;;8.15;;
29812;SDS011;16707;48.106;11.548;2023-05-20T08:24:55;12.30;;;8.85;;
29812;SDS011;16707;48.106;11.548;2023-05-20T08:27:24;14.18;;;9.93;;
29812;SDS011;16707;48.106;11.548;2023-05-20T08:29:54;12.25;;;9.48;;
29812;SDS011;16707;48.106;11.548;2023-05-20T08:32:21;12.52;;;9.00;;
29812;SDS011;16707;48.106;11.548;2023-05-20T08:34:49;12.25;;;8.73;;
29812;SDS011;16707;48.106;11.548;2023-05-20T08:37:16;11.02;;;8.48;;
29812;SDS011;16707;48.106;11.548;2023-05-20T08:39:48;11.40;;;8.93;;
29812;SDS011;16707;48.106;11.548;2023-05-20T08:42:19;10.48;;;8.30;;
29812;SDS011;16707;48.106;11.548;2023-05-20T08:44:48;10.15;;;8.02;;
29812;SDS011;16707;48.106;11.548;2023-05-20T08:47:20;12.18;;;8.65;;
29812;SDS011;16707;48.106;11.548;2023-05-20T08:50:00;13.57;;;9.15;;
29812;SDS011;16707;48.106;11.548;2023-05-20T08:52:27;9.73;;;8.10;;
29812;SDS011;16707;48.106;11.548;2023-05-20T08:55:01;11.82;;;8.68;;
29812;SDS011;16707;48.106;11.548;2023-05-20T08:57:31;9.57;;;7.90;;
29812;SDS011;16707;48.106;11.548;2023-05-20T09:00:01;11.80;;;7.43;;
29812;SDS011;16707;48.106;11.548;2023-05-20T09:02:35;9.93;;;7.53;;
29812;SDS011;16707;48.106;11.548;2023-05-20T09:05:02;7.80;;;7.00;;
29812;SDS011;16707;48.106;11.548;2023-05-20T09:07:41;8.63;;;6.65;;
29812;SDS011;16707;48.106;11.548;2023-05-20T09:10:09;7.57;;;6.53;;
29812;SDS011;16707;48.106;11.548;2023-05-20T09:12:39;8.85;;;6.85;;
29812;SDS011;16707;48.106;11.548;2023-05-20T09:15:07;6.82;;;5.68;;
29812;SDS011;16707;48.106;11.548;2023-05-20T09:17:36;8.80;;;6.93;;
29812;SDS011;16707;48.106;11.548;2023-05-20T09:20:06;7.72;;;6.25;;
29812;SDS011;16707;48.106;11.548;2023-05-20T09:22:38;7.07;;;6.10;;
29812;SDS011;16707;48.106;11.548;2023-05-20T09:25:11;5.95;;;5.35;;
29812;SDS011;16707;48.106;11.548;2023-05-20T09:27:43;7.50;;;5.93;;
29812;SDS011;16707;48.106;11.548;2023-05-20T09:30:11;7.28;;;5.38;;
29812;SDS011;16707;48.106;11.548;2023-05-20T09:32:41;5.85;;;5.05;;
29812;SDS011;16707;48.106;11.548;2023-05-20T09:35:11;6.40;;;5.28;;
29812;SDS011;16707;48.106;11.548;2023-05-20T09:37:40;5.90;;;5.30;;
29812;SDS011;16707;48.106;11.548;2023-05-20T09:40:13;5.50;;;4.60;;
29812;SDS011;16707;48.106;11.548;2023-05-20T09:42:49;6.15;;;4.38;;
29812;SDS011;16707;48.106;11.548;2023-05-20T09:45:25;5.72;;;4.68;;
29812;SDS011;16707;48.106;11.548;2023-05-20T09:47:52;5.72;;;4.25;;
29812;SDS011;16707;48.106;11.548;2023-05-20T09:50:21;5.32;;;4.05;;
29812;SDS011;16707;48.106;11.548;2023-05-20T09:52:53;4.70;;;4.22;;
29812;SDS011;16707;48.106;11.548;2023-05-20T09:55:23;5.10;;;4.30;;
29812;SDS011;16707;48.106;11.548;2023-05-20T09:57:51;4.40;;;4.00;;
29812;SDS011;16707;48.106;11.548;2023-05-20T10:00:19;5.97;;;4.28;;
29812;SDS011;16707;48.106;11.548;2023-05-20T10:02:47;6.15;;;3.70;;
29812;SDS011;16707;48.106;11.548;2023-05-20T10:05:21;5.18;;;4.10;;
29812;SDS011;16707;48.106;11.548;2023-05-20T10:11:04;3.95;;;3.42;;
29812;SDS011;16707;48.106;11.548;2023-05-20T10:16:41;5.35;;;3.85;;
29812;SDS011;16707;48.106;11.548;2023-05-20T10:19:18;4.70;;;3.50;;
29812;SDS011;16707;48.106;11.548;2023-05-20T10:21:56;5.03;;;3.20;;
29812;SDS011;16707;48.106;11.548;2023-05-20T10:24:28;4.80;;;2.92;;
29812;SDS011;16707;48.106;11.548;2023-05-20T10:27:00;5.07;;;3.33;;
29812;SDS011;16707;48.106;11.548;2023-05-20T10:29:41;3.90;;;3.28;;
29812;SDS011;16707;48.106;11.548;2023-05-20T10:32:10;5.68;;;3.65;;
29812;SDS011;16707;48.106;11.548;2023-05-20T10:34:49;3.72;;;3.30;;
29812;SDS011;16707;48.106;11.548;2023-05-20T10:37:23;3.90;;;3.60;;
29812;SDS011;16707;48.106;11.548;2023-05-20T10:39:51;4.40;;;3.35;;
29812;SDS011;16707;48.106;11.548;2023-05-20T10:42:32;3.22;;;2.90;;
29812;SDS011;16707;48.106;11.548;2023-05-20T10:45:09;3.13;;;2.70;;
29812;SDS011;16707;48.106;11.548;2023-05-20T10:47:56;3.60;;;2.88;;
29812;SDS011;16707;48.106;11.548;2023-05-20T10:50:25;4.15;;;2.83;;
29812;SDS011;16707;48.106;11.548;2023-05-20T10:52:55;3.75;;;2.75;;
29812;SDS011;16707;48.106;11.548;2023-05-20T10:55:34;3.53;;;2.75;;
29812;SDS011;16707;48.106;11.548;2023-05-20T10:58:08;3.63;;;2.53;;
29812;SDS011;16707;48.106;11.548;2023-05-20T11:00:43;2.83;;;2.40;;
29812;SDS011;16707;48.106;11.548;2023-05-20T11:03:14;3.35;;;2.65;;
29812;SDS011;16707;48.106;11.548;2023-05-20T11:05:43;2.58;;;2.28;;
29812;SDS011;16707;48.106;11.548;2023-05-20T11:10:44;3.47;;;2.75;;
29812;SDS011;16707;48.106;11.548;2023-05-20T11:13:17;4.18;;;2.85;;
29812;SDS011;16707;48.106;11.548;2023-05-20T11:15:50;4.75;;;2.60;;
29812;SDS011;16707;48.106;11.548;2023-05-20T11:18:25;2.90;;;2.60;;
29812;SDS011;16707;48.106;11.548;2023-05-20T11:20:54;3.28;;;2.97;;
29812;SDS011;16707;48.106;11.548;2023-05-20T11:23:25;3.85;;;3.00;;
29812;SDS011;16707;48.106;11.548;2023-05-20T11:25:53;2.63;;;2.42;;
29812;SDS011;16707;48.106;11.548;2023-05-20T11:28:25;3.70;;;2.85;;
29812;SDS011;16707;48.106;11.548;2023-05-20T11:30:54;5.15;;;2.72;;
29812;SDS011;16707;48.106;11.548;2023-05-20T11:33:24;3.15;;;2.40;;
29812;SDS011;16707;48.106;11.548;2023-05-20T11:35:55;2.40;;;2.10;;
29812;SDS011;16707;48.106;11.548;2023-05-20T11:38:26;3.80;;;2.60;;
29812;SDS011;16707;48.106;11.548;2023-05-20T11:40:56;4.75;;;3.13;;
29812;SDS011;16707;48.106;11.548;2023-05-20T11:43:23;3.65;;;2.72;;
29812;SDS011;16707;48.106;11.548;2023-05-20T11:45:56;6.70;;;3.05;;
29812;SDS011;16707;48.106;11.548;2023-05-20T11:48:29;4.88;;;2.90;;
29812;SDS011;16707;48.106;11.548;2023-05-20T11:50:59;3.28;;;2.88;;
29812;SDS011;16707;48.106;11.548;2023-05-20T11:53:27;2.90;;;2.60;;
29812;SDS011;16707;48.106;11.548;2023-05-20T11:55:56;3.63;;;2.97;;
29812;SDS011;16707;48.106;11.548;2023-05-20T11:58:30;4.38;;;2.60;;
29812;SDS011;16707;48.106;11.548;2023-05-20T12:01:02;5.78;;;2.72;;
29812;SDS011;16707;48.106;11.548;2023-05-20T12:03:29;4.55;;;2.58;;
29812;SDS011;16707;48.106;11.548;2023-05-20T12:06:00;3.85;;;2.45;;
29812;SDS011;16707;48.106;11.548;2023-05-20T12:08:31;3.13;;;2.83;;
29812;SDS011;16707;48.106;11.548;2023-05-20T12:11:02;5.20;;;2.72;;
29812;SDS011;16707;48.106;11.548;2023-05-20T12:13:31;3.45;;;2.78;;
29812;SDS011;16707;48.106;11.548;2023-05-20T12:15:58;4.00;;;2.60;;
29812;SDS011;16707;48.106;11.548;2023-05-20T12:18:27;3.65;;;2.65;;
29812;SDS011;16707;48.106;11.548;2023-05-20T12:20:59;3.10;;;2.80;;
29812;SDS011;16707;48.106;11.548;2023-05-20T12:23:28;6.47;;;2.67;;
29812;SDS011;16707;48.106;11.548;2023-05-20T12:25:58;3.10;;;2.80;;
29812;SDS011;16707;48.106;11.548;2023-05-20T12:28:28;4.00;;;2.85;;
29812;SDS011;16707;48.106;11.548;2023-05-20T12:30:57;2.95;;;2.65;;
29812;SDS011;16707;48.106;11.548;2023-05-20T12:33:24;3.70;;;3.30;;
29812;SDS011;16707;48.106;11.548;2023-05-20T12:35:52;3.03;;;2.55;;
29812;SDS011;16707;48.106;11.548;2023-05-20T12:38:21;3.22;;;2.45;;
29812;SDS011;16707;48.106;11.548;2023-05-20T12:40:49;3.10;;;2.70;;
29812;SDS011;16707;48.106;11.548;2023-05-20T12:43:22;3.60;;;2.95;;
29812;SDS011;16707;48.106;11.548;2023-05-20T12:45:58;3.08;;;2.50;;
29812;SDS011;16707;48.106;11.548;2023-05-20T12:48:31;4.13;;;2.50;;
29812;SDS011;16707;48.106;11.548;2023-05-20T12:51:04;3.03;;;2.63;;
29812;SDS011;16707;48.106;11.548;2023-05-20T12:53:31;3.25;;;2.75;;
29812;SDS011;16707;48.106;11.548;2023-05-20T12:55:59;3.60;;;3.13;;
29812;SDS011;16707;48.106;11.548;2023-05-20T12:58:29;4.47;;;3.22;;
29812;SDS011;16707;48.106;11.548;2023-05-20T13:01:07;3.65;;;3.30;;
29812;SDS011;16707;48.106;11.548;2023-05-20T13:03:37;4.17;;;3.27;;
29812;SDS011;16707;48.106;11.548;2023-05-20T13:06:05;4.20;;;3.40;;
29812;SDS011;16707;48.106;11.548;2023-05-20T13:08:33;5.28;;;3.30;;
29812;SDS011;16707;48.106;11.548;2023-05-20T13:11:00;4.60;;;3.70;;
29812;SDS011;16707;48.106;11.548;2023-05-20T13:13:28;4.47;;;3.65;;
29812;SDS011;16707;48.106;11.548;2023-05-20T13:15:55;4.97;;;3.63;;
29812;SDS011;16707;48.106;11.548;2023-05-20T13:18:25;6.47;;;4.72;;
29812;SDS011;16707;48.106;11.548;2023-05-20T13:20:53;5.68;;;4.32;;
29812;SDS011;16707;48.106;11.548;2023-05-20T13:23:25;5.10;;;4.53;;
29812;SDS011;16707;48.106;11.548;2023-05-20T13:25:55;5.33;;;4.53;;
29812;SDS011;16707;48.106;11.548;2023-05-20T13:28:24;6.28;;;4.70;;
29812;SDS011;16707;48.106;11.548;2023-05-20T13:30:52;5.20;;;4.18;;
29812;SDS011;16707;48.106;11.548;2023-05-20T13:33:20;6.80;;;4.80;;
29812;SDS011;16707;48.106;11.548;2023-05-20T13:35:49;5.97;;;4.80;;
29812;SDS011;16707;48.106;11.548;2023-05-20T13:38:17;8.32;;;5.40;;
29812;SDS011;16707;48.106;11.548;2023-05-20T13:40:48;8.15;;;5.68;;
29812;SDS011;16707;48.106;11.548;2023-05-20T13:43:15;6.30;;;5.43;;
29812;SDS011;16707;48.106;11.548;2023-05-20T13:45:49;6.70;;;4.70;;
29812;SDS011;16707;48.106;11.548;2023-05-20T13:48:19;6.72;;;5.30;;
29812;SDS011;16707;48.106;11.548;2023-05-20T13:50:47;6.30;;;5.55;;
29812;SDS011;16707;48.106;11.548;2023-05-20T13:53:20;8.30;;;6.32;;
29812;SDS011;16707;48.106;11.548;2023-05-20T13:55:50;8.32;;;4.97;;
29812;SDS011;16707;48.106;11.548;2023-05-20T13:58:17;7.65;;;5.10;;
29812;SDS011;16707;48.106;11.548;2023-05-20T14:00:45;6.28;;;5.53;;
29812;SDS011;16707;48.106;11.548;2023-05-20T14:03:15;6.45;;;5.38;;
29812;SDS011;16707;48.106;11.548;2023-05-20T14:05:50;6.95;;;5.43;;
29812;SDS011;16707;48.106;11.548;2023-05-20T14:08:20;5.90;;;4.68;;
29812;SDS011;16707;48.106;11.548;2023-05-20T14:10:47;7.57;;;5.72;;
29812;SDS011;16707;48.106;11.548;2023-05-20T14:13:18;8.57;;;5.05;;
29812;SDS011;16707;48.106;11.548;2023-05-20T14:15:48;6.50;;;4.68;;
29812;SDS011;16707;48.106;11.548;2023-05-20T14:18:19;5.25;;;4.75;;
29812;SDS011;16707;48.106;11.548;2023-05-20T14:20:48;5.50;;;4.97;;
29812;SDS011;16707;48.106;11.548;2023-05-20T14:23:16;6.53;;;5.35;;
29812;SDS011;16707;48.106;11.548;2023-05-20T14:28:50;8.07;;;5.20;;
29812;SDS011;16707;48.106;11.548;2023-05-20T14:31:17;7.82;;;6.00;;
29812;SDS011;16707;48.106;11.548;2023-05-20T14:33:47;7.60;;;5.18;;
29812;SDS011;16707;48.106;11.548;2023-05-20T14:36:17;8.32;;;5.93;;
29812;SDS011;16707;48.106;11.548;2023-05-20T14:38:44;7.13;;;5.55;;
29812;SDS011;16707;48.106;11.548;2023-05-20T14:41:12;7.20;;;5.28;;
29812;SDS011;16707;48.106;11.548;2023-05-20T14:43:39;6.72;;;5.65;;
29812;SDS011;16707;48.106;11.548;2023-05-20T14:46:08;6.38;;;5.18;;
29812;SDS011;16707;48.106;11.548;2023-05-20T14:48:35;9.45;;;5.43;;
29812;SDS011;16707;48.106;11.548;2023-05-20T14:51:03;6.72;;;5.32;;
29812;SDS011;16707;48.106;11.548;2023-05-20T14:53:33;7.80;;;5.55;;
29812;SDS011;16707;48.106;11.548;2023-05-20T14:56:04;7.57;;;5.75;;
29812;SDS011;16707;48.106;11.548;2023-05-20T14:58:33;7.10;;;5.35;;